createdAt,value
2022-08-18T00:02:16.649Z,41.92
2022-08-18T00:04:48.837Z,41.92
2022-08-18T00:07:25.001Z,41.90
2022-08-18T00:12:31.689Z,40.08
2022-08-18T00:15:04.020Z,41.30
2022-08-18T00:17:30.359Z,41.72
2022-08-18T00:19:56.244Z,39.50
2022-08-18T00:22:22.629Z,42.03
2022-08-18T00:24:52.789Z,41.05
2022-08-18T00:27:28.726Z,42.88
2022-08-18T00:29:57.311Z,43.55
2022-08-18T00:32:27.727Z,43.75
2022-08-18T00:34:54.359Z,45.20
2022-08-18T00:37:22.122Z,46.10
2022-08-18T00:39:51.954Z,48.38
2022-08-18T00:42:27.796Z,47.70
2022-08-18T00:45:01.344Z,47.90
2022-08-18T00:47:41.420Z,50.85
2022-08-18T00:50:30.846Z,47.47
2022-08-18T00:53:01.659Z,48.40
2022-08-18T00:55:29.683Z,49.30
2022-08-18T00:58:02.969Z,50.13
2022-08-18T01:00:29.043Z,50.83
2022-08-18T01:02:59.082Z,50.92
2022-08-18T01:05:42.849Z,48.03
2022-08-18T01:08:13.616Z,49.40
2022-08-18T01:10:40.498Z,48.85
2022-08-18T01:13:07.224Z,48.50
2022-08-18T01:15:33.540Z,48.92
2022-08-18T01:18:22.054Z,47.50
2022-08-18T01:21:22.271Z,51.20
2022-08-18T01:23:49.464Z,53.63
2022-08-18T01:26:17.232Z,56.17
2022-08-18T01:28:45.703Z,59.30
2022-08-18T01:31:28.318Z,56.35
2022-08-18T01:33:54.309Z,53.72
2022-08-18T01:36:21.322Z,56.85
2022-08-18T01:38:51.478Z,52.50
2022-08-18T01:41:28.384Z,53.90
2022-08-18T01:43:56.135Z,54.50
2022-08-18T01:46:22.527Z,56.75
2022-08-18T01:48:48.622Z,58.33
2022-08-18T01:51:15.680Z,56.53
2022-08-18T01:53:41.738Z,59.15
2022-08-18T01:56:07.933Z,58.15
2022-08-18T01:58:35.416Z,57.40
2022-08-18T02:01:02.309Z,57.58
2022-08-18T02:03:33.893Z,56.75
2022-08-18T02:06:02.233Z,57.92
2022-08-18T02:08:29.055Z,54.70
2022-08-18T02:10:58.018Z,49.17
2022-08-18T02:13:25.694Z,45.35
2022-08-18T02:15:51.866Z,36.53
2022-08-18T02:18:25.965Z,35.97
2022-08-18T02:21:13.557Z,37.00
2022-08-18T02:23:41.836Z,38.03
2022-08-18T02:26:19.379Z,40.53
2022-08-18T02:28:45.719Z,44.28
2022-08-18T02:31:15.402Z,47.55
2022-08-18T02:33:42.202Z,53.47
2022-08-18T02:36:18.435Z,56.13
2022-08-18T02:38:44.446Z,58.30
2022-08-18T02:41:22.168Z,54.35
2022-08-18T02:43:48.003Z,53.70
2022-08-18T02:46:14.153Z,53.92
2022-08-18T02:48:40.037Z,40.75
2022-08-18T02:51:05.889Z,29.48
2022-08-18T02:53:32.438Z,15.88
2022-08-18T02:56:41.508Z,15.30
2022-08-18T02:59:19.112Z,15.88
2022-08-18T03:01:50.570Z,15.43
2022-08-18T03:04:21.131Z,19.75
2022-08-18T03:06:49.133Z,21.80
2022-08-18T03:09:17.845Z,21.30
2022-08-18T03:11:44.686Z,23.17
2022-08-18T03:14:11.505Z,24.20
2022-08-18T03:16:54.559Z,24.75
2022-08-18T03:19:27.469Z,24.65
2022-08-18T03:21:54.667Z,27.30
2022-08-18T03:24:22.761Z,27.38
2022-08-18T03:26:50.613Z,27.90
2022-08-18T03:29:16.480Z,30.77
2022-08-18T03:31:43.789Z,26.75
2022-08-18T03:34:10.322Z,27.55
2022-08-18T03:36:36.452Z,27.50
2022-08-18T03:39:07.962Z,28.35
2022-08-18T03:41:43.707Z,29.13
2022-08-18T03:44:23.324Z,28.75
2022-08-18T03:46:49.846Z,31.48
2022-08-18T03:49:17.340Z,33.17
2022-08-18T03:51:46.027Z,34.88
2022-08-18T03:54:15.112Z,37.17
2022-08-18T03:56:41.977Z,34.60
2022-08-18T03:59:17.191Z,34.10
2022-08-18T04:04:12.542Z,35.95
2022-08-18T04:06:49.529Z,36.47
2022-08-18T04:09:15.982Z,38.38
2022-08-18T04:11:43.096Z,39.67
2022-08-18T04:14:14.323Z,39.08
2022-08-18T04:16:41.052Z,39.47
2022-08-18T04:19:08.121Z,41.58
2022-08-18T04:21:37.025Z,41.35
2022-08-18T04:24:04.580Z,42.42
2022-08-18T04:26:36.262Z,44.80
2022-08-18T04:29:03.317Z,44.13
2022-08-18T04:31:30.321Z,40.72
2022-08-18T04:34:00.342Z,46.58
2022-08-18T04:36:27.937Z,43.88
2022-08-18T04:38:56.556Z,45.28
2022-08-18T04:41:26.430Z,46.40
2022-08-18T04:43:58.307Z,43.67
2022-08-18T04:46:25.439Z,46.45
2022-08-18T04:48:52.101Z,45.30
2022-08-18T04:52:27.044Z,46.15
2022-08-18T04:54:05.871Z,48.75
2022-08-18T04:56:35.525Z,50.13
2022-08-18T04:59:08.370Z,48.75
2022-08-18T05:01:40.814Z,46.67
2022-08-18T05:04:07.605Z,47.45
2022-08-18T05:06:34.187Z,46.60
2022-08-18T05:09:03.595Z,45.88
2022-08-18T05:11:34.659Z,45.22
2022-08-18T05:14:06.275Z,46.42
2022-08-18T05:16:35.722Z,44.13
2022-08-18T05:19:06.909Z,42.03
2022-08-18T05:21:41.862Z,45.47
2022-08-18T05:24:09.380Z,43.90
2022-08-18T05:26:36.140Z,43.03
2022-08-18T05:29:17.817Z,44.33
2022-08-18T05:31:44.926Z,44.45
2022-08-18T05:34:10.801Z,42.38
2022-08-18T05:36:48.612Z,44.53
2022-08-18T05:39:17.161Z,45.40
2022-08-18T05:42:17.118Z,47.80
2022-08-18T05:44:48.976Z,52.58
2022-08-18T05:47:26.889Z,50.15
2022-08-18T05:49:55.246Z,49.15
2022-08-18T05:52:21.061Z,48.10
2022-08-18T05:55:12.306Z,46.42
2022-08-18T05:57:52.429Z,42.63
2022-08-18T06:00:20.463Z,39.85
2022-08-18T06:02:55.413Z,38.50
2022-08-18T06:05:30.666Z,37.08
2022-08-18T06:10:25.542Z,36.03
2022-08-18T06:13:00.584Z,39.25
2022-08-18T06:15:30.589Z,40.05
2022-08-18T06:18:33.594Z,39.92
2022-08-18T06:21:21.564Z,41.78
2022-08-18T06:24:17.758Z,44.72
2022-08-18T06:26:52.608Z,40.05
2022-08-18T06:29:24.358Z,40.88
2022-08-18T06:32:02.363Z,39.25
2022-08-18T06:34:55.775Z,37.58
2022-08-18T06:37:33.365Z,40.85
2022-08-18T06:39:59.299Z,42.83
2022-08-18T06:42:30.489Z,40.00
2022-08-18T06:45:12.175Z,39.17
2022-08-18T06:47:46.722Z,40.22
2022-08-18T06:50:54.476Z,40.65
2022-08-18T06:53:27.724Z,41.33
2022-08-18T06:55:55.162Z,40.67
2022-08-18T06:58:26.935Z,41.22
2022-08-18T07:00:55.932Z,43.97
2022-08-18T07:03:39.185Z,42.35
2022-08-18T07:06:27.867Z,42.92
2022-08-18T07:09:15.520Z,41.97
2022-08-18T07:11:58.065Z,40.70
2022-08-18T07:14:24.997Z,40.28
2022-08-18T07:17:06.442Z,40.40
2022-08-18T07:19:32.404Z,39.25
2022-08-18T07:22:11.174Z,40.85
2022-08-18T07:24:55.376Z,39.13
2022-08-18T07:27:43.397Z,40.15
2022-08-18T07:30:15.580Z,40.30
2022-08-18T07:33:04.358Z,39.63
2022-08-18T07:35:42.679Z,42.55
2022-08-18T07:38:41.368Z,41.38
2022-08-18T07:43:46.191Z,41.90
2022-08-18T07:46:18.990Z,41.20
2022-08-18T07:48:46.110Z,41.33
2022-08-18T07:51:21.335Z,38.75
2022-08-18T07:54:07.449Z,37.30
2022-08-18T07:56:42.758Z,33.15
2022-08-18T07:59:15.526Z,33.33
2022-08-18T08:02:20.391Z,31.25
2022-08-18T08:05:00.444Z,30.58
2022-08-18T08:07:31.173Z,28.63
2022-08-18T08:10:15.416Z,29.67
2022-08-18T08:13:10.011Z,32.35
2022-08-18T08:16:00.588Z,32.65
2022-08-18T08:18:40.416Z,32.60
2022-08-18T08:21:30.864Z,33.40
2022-08-18T08:24:23.570Z,35.13
2022-08-18T08:27:05.726Z,35.53
2022-08-18T08:29:46.574Z,36.92
2022-08-18T08:32:21.700Z,35.22
2022-08-18T08:35:04.324Z,36.60
2022-08-18T08:37:41.550Z,34.95
2022-08-18T08:40:22.892Z,33.85
2022-08-18T08:42:57.929Z,36.05
2022-08-18T08:45:31.636Z,31.63
2022-08-18T08:48:14.502Z,33.20
2022-08-18T08:50:49.121Z,32.70
2022-08-18T08:53:19.305Z,33.60
2022-08-18T08:55:49.907Z,34.42
2022-08-18T08:58:25.712Z,30.13
2022-08-18T09:00:52.486Z,34.38
2022-08-18T09:03:42.771Z,33.47
2022-08-18T09:06:23.313Z,31.63
2022-08-18T09:09:27.691Z,33.13
2022-08-18T09:12:18.925Z,33.67
2022-08-18T09:15:16.769Z,32.92
2022-08-18T09:18:35.952Z,30.55
2022-08-18T09:21:30.031Z,29.23
2022-08-18T09:24:28.326Z,31.23
2022-08-18T09:27:03.167Z,29.50
2022-08-18T09:29:37.870Z,28.58
2022-08-18T09:32:19.331Z,33.25
2022-08-18T09:35:17.247Z,30.48
2022-08-18T09:38:13.808Z,32.03
2022-08-18T09:41:16.387Z,32.50
2022-08-18T09:46:43.882Z,32.58
2022-08-18T09:49:21.559Z,30.33
2022-08-18T09:51:50.636Z,28.92
2022-08-18T09:54:25.076Z,32.33
2022-08-18T09:56:54.271Z,28.85
2022-08-18T09:59:34.575Z,31.23
2022-08-18T10:02:06.450Z,27.90
2022-08-18T10:04:50.587Z,29.23
2022-08-18T10:07:43.354Z,29.58
2022-08-18T10:11:02.305Z,31.40
2022-08-18T10:13:29.571Z,31.45
2022-08-18T10:16:57.577Z,35.40
2022-08-18T10:19:42.355Z,35.50
2022-08-18T10:22:10.452Z,33.63
2022-08-18T10:24:52.168Z,34.08
2022-08-18T10:30:34.185Z,31.75
2022-08-18T10:33:15.415Z,31.10
2022-08-18T10:35:59.617Z,31.30
2022-08-18T10:38:39.202Z,31.00
2022-08-18T10:41:15.452Z,32.13
2022-08-18T10:43:55.578Z,31.00
2022-08-18T10:49:13.595Z,31.23
2022-08-18T10:52:00.140Z,32.15
2022-08-18T10:55:10.254Z,30.15
2022-08-18T10:58:07.323Z,33.15
2022-08-18T11:00:47.058Z,28.77
2022-08-18T11:03:55.595Z,28.77
2022-08-18T11:06:25.108Z,27.48
2022-08-18T11:08:57.716Z,28.08
2022-08-18T11:11:41.432Z,27.25
2022-08-18T11:14:30.515Z,27.38
2022-08-18T11:17:13.684Z,25.10
2022-08-18T11:19:44.213Z,27.05
2022-08-18T11:22:33.157Z,26.92
2022-08-18T11:25:03.333Z,26.20
2022-08-18T11:27:36.966Z,25.60
2022-08-18T11:30:08.938Z,24.25
2022-08-18T11:32:51.465Z,24.88
2022-08-18T11:35:25.287Z,24.95
2022-08-18T11:38:00.217Z,26.33
2022-08-18T11:43:30.030Z,24.17
2022-08-18T11:49:26.404Z,20.77
2022-08-18T11:51:54.424Z,20.92
2022-08-18T11:54:30.392Z,20.13
2022-08-18T11:57:39.315Z,21.95
2022-08-18T12:00:42.884Z,20.85
2022-08-18T12:03:48.408Z,20.83
2022-08-18T12:06:31.029Z,19.33
2022-08-18T12:09:02.038Z,20.52
2022-08-18T12:11:35.705Z,18.70
2022-08-18T12:14:31.702Z,19.35
2022-08-18T12:16:55.500Z,19.65
2022-08-18T12:19:23.434Z,17.90
2022-08-18T12:21:50.640Z,16.77
2022-08-18T12:24:28.755Z,18.92
2022-08-18T12:27:00.877Z,19.73
2022-08-18T12:29:33.078Z,19.50
2022-08-18T12:34:56.010Z,21.02
2022-08-18T12:37:57.643Z,21.67
2022-08-18T12:40:13.477Z,21.63
2022-08-18T12:42:40.929Z,19.83
2022-08-18T12:45:08.744Z,21.15
2022-08-18T12:47:39.130Z,21.67
2022-08-18T12:50:08.724Z,20.88
2022-08-18T12:52:36.434Z,21.15
2022-08-18T13:00:35.655Z,17.92
2022-08-18T13:03:02.269Z,18.90
2022-08-18T13:05:30.036Z,20.00
2022-08-18T13:07:59.710Z,19.25
2022-08-18T13:10:43.245Z,18.92
2022-08-18T13:13:11.694Z,20.30
2022-08-18T13:15:37.978Z,18.40
2022-08-18T13:18:03.844Z,17.50
2022-08-18T13:20:30.080Z,18.85
2022-08-18T13:22:55.906Z,20.55
2022-08-18T13:25:32.668Z,18.60
2022-08-18T13:28:04.839Z,18.52
2022-08-18T13:30:32.416Z,18.48
2022-08-18T13:33:05.350Z,17.10
2022-08-18T13:35:47.277Z,16.73
2022-08-18T13:38:27.160Z,15.88
2022-08-18T13:40:58.020Z,17.02
2022-08-18T13:43:30.329Z,17.48
2022-08-18T13:45:56.554Z,16.38
2022-08-18T13:48:26.046Z,18.40
2022-08-18T13:50:57.689Z,19.65
2022-08-18T13:53:24.882Z,18.05
2022-08-18T13:55:53.695Z,16.55
2022-08-18T13:58:20.715Z,18.52
2022-08-18T14:00:52.523Z,17.67
2022-08-18T14:03:42.494Z,19.15
2022-08-18T14:06:08.868Z,19.85
2022-08-18T14:08:39.055Z,19.33
2022-08-18T14:11:06.535Z,19.38
2022-08-18T14:13:43.638Z,19.15
2022-08-18T14:16:11.149Z,18.80
2022-08-18T14:19:04.518Z,18.17
2022-08-18T14:22:11.737Z,16.58
2022-08-18T14:24:58.071Z,18.80
2022-08-18T14:27:28.260Z,17.17
2022-08-18T14:30:08.004Z,18.80
2022-08-18T14:32:36.346Z,19.10
2022-08-18T14:35:34.281Z,17.92
2022-08-18T14:37:50.738Z,18.52
2022-08-18T14:40:18.103Z,17.58
2022-08-18T14:42:54.387Z,17.08
2022-08-18T14:45:31.265Z,18.13
2022-08-18T14:48:07.604Z,18.70
2022-08-18T14:50:38.177Z,17.30
2022-08-18T14:53:05.502Z,18.30
2022-08-18T14:55:31.657Z,18.35
2022-08-18T14:57:58.636Z,17.50
2022-08-18T15:00:25.191Z,17.65
2022-08-18T15:02:51.089Z,18.05
2022-08-18T15:05:19.735Z,17.15
2022-08-18T15:07:50.308Z,19.73
2022-08-18T15:10:19.746Z,18.33
2022-08-18T15:12:49.716Z,18.02
2022-08-18T15:15:18.091Z,17.55
2022-08-18T15:17:44.724Z,18.23
2022-08-18T15:20:16.108Z,18.85
2022-08-18T15:23:03.976Z,19.73
2022-08-18T15:25:43.915Z,21.15
2022-08-18T15:28:21.731Z,19.92
2022-08-18T15:30:51.357Z,18.48
2022-08-18T15:33:22.027Z,20.10
2022-08-18T15:35:52.844Z,18.52
2022-08-18T15:38:21.923Z,22.30
2022-08-18T15:40:57.110Z,21.02
2022-08-18T15:43:31.267Z,20.63
2022-08-18T15:45:59.139Z,21.00
2022-08-18T15:48:27.282Z,21.58
2022-08-18T15:50:54.362Z,22.90
2022-08-18T15:53:24.738Z,20.85
2022-08-18T15:55:56.203Z,22.08
2022-08-18T15:58:26.818Z,23.75
2022-08-18T16:00:55.763Z,23.92
2022-08-18T16:03:21.726Z,23.50
2022-08-18T16:05:52.785Z,24.25
2022-08-18T16:08:21.306Z,23.92
2022-08-18T16:10:47.627Z,25.33
2022-08-18T16:13:13.981Z,25.48
2022-08-18T16:15:42.882Z,26.02
2022-08-18T16:18:09.982Z,25.42
2022-08-18T16:20:36.899Z,25.10
2022-08-18T16:23:03.126Z,23.98
2022-08-18T16:25:29.010Z,23.50
2022-08-18T16:27:57.197Z,23.20
2022-08-18T16:30:25.521Z,23.48
2022-08-18T16:32:52.665Z,24.70
2022-08-18T16:35:20.029Z,23.52
2022-08-18T16:37:48.447Z,23.75
2022-08-18T16:40:16.244Z,22.77
2022-08-18T16:42:42.785Z,21.83
2022-08-18T16:45:09.113Z,19.75
2022-08-18T16:47:41.422Z,20.65
2022-08-18T16:50:09.746Z,19.52
2022-08-18T16:52:35.956Z,17.88
2022-08-18T16:55:04.073Z,19.10
2022-08-18T16:57:50.566Z,16.63
2022-08-18T17:00:38.431Z,16.98
2022-08-18T17:03:28.358Z,16.77
2022-08-18T17:06:13.306Z,16.00
2022-08-18T17:08:40.251Z,16.15
2022-08-18T17:11:10.385Z,17.35
2022-08-18T17:13:38.128Z,17.10
2022-08-18T17:16:04.194Z,18.65
2022-08-18T17:18:30.176Z,15.93
2022-08-18T17:21:03.024Z,19.17
2022-08-18T17:23:30.418Z,17.52
2022-08-18T17:25:57.527Z,18.13
2022-08-18T17:28:31.610Z,16.90
2022-08-18T17:31:01.108Z,17.23
2022-08-18T17:33:31.881Z,16.42
2022-08-18T17:36:03.932Z,16.42
2022-08-18T17:38:45.213Z,16.08
2022-08-18T17:41:12.143Z,16.02
2022-08-18T17:46:17.998Z,16.08
2022-08-18T17:48:54.899Z,17.00
2022-08-18T17:51:34.033Z,16.88
2022-08-18T17:54:28.939Z,16.00
2022-08-18T17:57:00.878Z,16.00
2022-08-18T17:59:46.357Z,15.75
2022-08-18T18:02:30.259Z,14.73
2022-08-18T18:05:06.996Z,14.73
2022-08-18T18:07:51.178Z,14.63
2022-08-18T18:10:51.050Z,16.15
2022-08-18T18:13:32.878Z,15.63
2022-08-18T18:16:17.751Z,15.77
2022-08-18T18:18:44.350Z,15.98
2022-08-18T18:21:16.288Z,16.73
2022-08-18T18:23:48.892Z,16.23
2022-08-18T18:26:25.308Z,17.50
2022-08-18T18:29:09.174Z,16.85
2022-08-18T18:31:37.040Z,15.55
2022-08-18T18:34:23.371Z,16.92
2022-08-18T18:36:55.441Z,16.77
2022-08-18T18:39:32.994Z,17.98
2022-08-18T18:42:09.651Z,21.00
2022-08-18T18:44:35.656Z,21.85
2022-08-18T18:47:08.794Z,20.85
2022-08-18T18:49:41.202Z,18.50
2022-08-18T18:52:36.268Z,19.38
2022-08-18T18:55:14.408Z,19.13
2022-08-18T18:57:49.571Z,18.63
2022-08-18T19:00:37.719Z,18.02
2022-08-18T19:03:16.852Z,18.40
2022-08-18T19:05:44.070Z,16.17
2022-08-18T19:08:19.141Z,15.85
2022-08-18T19:10:48.094Z,16.30
2022-08-18T19:13:33.190Z,17.13
2022-08-18T19:16:28.975Z,16.83
2022-08-18T19:19:37.081Z,16.35
2022-08-18T19:22:08.679Z,16.33
2022-08-18T19:24:42.539Z,17.98
2022-08-18T19:27:24.329Z,16.90
2022-08-18T19:29:53.328Z,16.52
2022-08-18T19:32:26.497Z,17.95
2022-08-18T19:34:55.791Z,18.45
2022-08-18T19:37:32.367Z,16.52
2022-08-18T19:40:23.315Z,17.20
2022-08-18T19:42:58.009Z,17.20
2022-08-18T19:45:29.885Z,17.52
2022-08-18T19:48:06.647Z,17.80
2022-08-18T19:50:50.330Z,16.95
2022-08-18T19:53:43.444Z,17.20
2022-08-18T19:56:42.827Z,18.60
2022-08-18T19:59:33.927Z,18.10
2022-08-18T20:02:28.777Z,18.17
2022-08-18T20:04:58.663Z,17.02
2022-08-18T20:08:05.037Z,16.52
2022-08-18T20:11:03.223Z,16.30
2022-08-18T20:13:42.888Z,16.60
2022-08-18T20:16:43.956Z,16.55
2022-08-18T20:19:41.794Z,16.33
2022-08-18T20:22:29.467Z,16.30
2022-08-18T20:24:58.833Z,16.20
2022-08-18T20:27:40.841Z,17.38
2022-08-18T20:30:19.023Z,15.68
2022-08-18T20:33:07.556Z,16.27
2022-08-18T20:36:08.558Z,16.98
2022-08-18T20:38:40.942Z,16.30
2022-08-18T20:41:29.698Z,16.05
2022-08-18T20:44:21.846Z,15.93
2022-08-18T20:47:25.169Z,17.10
2022-08-18T20:52:35.875Z,16.05
2022-08-18T20:55:18.311Z,15.70
2022-08-18T20:57:44.500Z,16.10
2022-08-18T21:00:15.031Z,15.55
2022-08-18T21:02:47.212Z,15.35
2022-08-18T21:05:28.077Z,15.07
2022-08-18T21:07:59.620Z,16.35
2022-08-18T21:10:29.002Z,15.13
2022-08-18T21:12:58.315Z,14.98
2022-08-18T21:15:34.812Z,13.70
2022-08-18T21:18:08.076Z,14.88
2022-08-18T21:20:34.635Z,13.82
2022-08-18T21:23:10.272Z,14.93
2022-08-18T21:25:40.071Z,14.95
2022-08-18T21:28:06.235Z,14.27
2022-08-18T21:30:32.076Z,14.10
2022-08-18T21:32:58.278Z,15.07
2022-08-18T21:35:33.859Z,17.00
2022-08-18T21:38:05.116Z,16.33
2022-08-18T21:40:34.071Z,16.20
2022-08-18T21:43:00.949Z,16.15
2022-08-18T21:45:28.592Z,16.52
2022-08-18T21:47:57.161Z,18.15
2022-08-18T21:50:26.867Z,18.40
2022-08-18T21:52:59.890Z,17.60
2022-08-18T21:55:36.547Z,17.83
2022-08-18T21:58:16.045Z,17.20
2022-08-18T22:00:44.806Z,17.77
2022-08-18T22:03:23.546Z,17.52
2022-08-18T22:06:30.251Z,17.13
2022-08-18T22:09:19.932Z,16.30
2022-08-18T22:12:05.272Z,16.73
2022-08-18T22:14:54.963Z,15.38
2022-08-18T22:17:55.898Z,14.95
2022-08-18T22:20:45.370Z,14.70
2022-08-18T22:23:29.656Z,15.75
2022-08-18T22:26:09.102Z,17.45
2022-08-18T22:29:01.546Z,16.42
2022-08-18T22:31:36.405Z,18.52
2022-08-18T22:34:10.251Z,17.52
2022-08-18T22:36:46.391Z,18.45
2022-08-18T22:39:17.450Z,17.55
2022-08-18T22:41:44.050Z,16.63
2022-08-18T22:44:09.895Z,17.35
2022-08-18T22:46:36.210Z,17.10
2022-08-18T22:49:03.546Z,17.05
2022-08-18T22:51:36.554Z,16.55
2022-08-18T22:54:07.691Z,15.63
2022-08-18T22:56:35.047Z,15.40
2022-08-18T22:59:16.146Z,16.67
2022-08-18T23:01:48.714Z,15.70
2022-08-18T23:04:17.004Z,16.38
2022-08-18T23:06:50.660Z,17.33
2022-08-18T23:09:24.471Z,15.85
2022-08-18T23:11:52.091Z,16.45
2022-08-18T23:14:18.496Z,15.52
2022-08-18T23:16:46.264Z,15.13
2022-08-18T23:19:14.505Z,15.52
2022-08-18T23:21:41.245Z,15.13
2022-08-18T23:24:08.904Z,14.40
2022-08-18T23:26:35.455Z,13.35
2022-08-18T23:29:03.038Z,14.98
2022-08-18T23:31:29.559Z,13.57
2022-08-18T23:33:55.511Z,12.05
2022-08-18T23:36:21.310Z,14.05
2022-08-18T23:38:47.161Z,11.82
2022-08-18T23:41:15.542Z,12.52
2022-08-18T23:43:42.023Z,13.20
2022-08-18T23:46:21.247Z,13.02
2022-08-18T23:48:50.049Z,12.38
2022-08-18T23:51:38.584Z,13.45
2022-08-18T23:54:07.589Z,14.05
2022-08-18T23:56:34.595Z,12.70
2022-08-18T23:59:02.150Z,12.70
